Time;durP1;ratioP1;P1;durP2;ratioP2;P2;SDS_P1;SDS_P2;PMS_P1;PMS_P2;Temp;Humidity;BMP_temperature;BMP_pressure;BME280_temperature;BME280_humidity;BME280_pressure;Samples;Min_cycle;Max_cycle;Signal;HPM_P1;HPM_P2
2022/11/25 00:01:08;;;;;;;2.95;2.75;;;5.50;99.90;;;;;;5020188;28;20220;-72
2022/11/25 00:03:36;;;;;;;3.13;2.92;;;5.50;99.90;;;;;;5009037;28;20196;-72
2022/11/25 00:06:13;;;;;;;3.35;3.15;;;5.50;99.90;;;;;;5004555;28;20228;-71
2022/11/25 00:08:40;;;;;;;3.40;3.20;;;5.50;99.90;;;;;;5007057;28;20204;-72
2022/11/25 00:11:08;;;;;;;2.72;2.63;;;5.50;99.90;;;;;;5008321;28;20227;-72
2022/11/25 00:13:36;;;;;;;2.67;2.58;;;5.50;99.90;;;;;;5007803;28;20220;-76
2022/11/25 00:16:04;;;;;;;2.72;2.58;;;5.40;99.90;;;;;;5007778;28;20235;-71
2022/11/25 00:18:31;;;;;;;2.80;2.63;;;5.40;99.90;;;;;;5006412;28;20248;-71
2022/11/25 00:20:59;;;;;;;3.00;2.80;;;5.50;99.90;;;;;;5011816;28;20223;-73
2022/11/25 00:23:27;;;;;;;2.67;2.58;;;5.50;99.90;;;;;;5027027;28;20208;-75
2022/11/25 00:25:54;;;;;;;2.70;2.60;;;5.50;99.90;;;;;;5019289;28;20220;-71
2022/11/25 00:28:21;;;;;;;2.78;2.67;;;5.50;99.90;;;;;;5025776;28;20210;-75
2022/11/25 00:30:48;;;;;;;2.80;2.60;;;5.50;99.90;;;;;;5021186;28;20231;-73
2022/11/25 00:33:17;;;;;;;2.95;2.75;;;5.50;99.90;;;;;;5027572;28;20634;-74
2022/11/25 00:35:44;;;;;;;3.00;2.80;;;5.40;99.90;;;;;;5026661;28;20315;-71
2022/11/25 00:38:11;;;;;;;2.97;2.88;;;5.40;99.90;;;;;;5023766;28;20208;-72
2022/11/25 00:40:39;;;;;;;3.47;3.22;;;5.30;99.90;;;;;;5032118;28;20697;-71
2022/11/25 00:45:51;;;;;;;2.60;2.50;;;5.30;99.90;;;;;;5008862;28;20231;-75
2022/11/25 00:48:18;;;;;;;3.55;3.35;;;5.20;99.90;;;;;;5012400;28;20211;-73
2022/11/25 00:50:45;;;;;;;3.08;2.88;;;5.30;99.90;;;;;;5005268;28;20200;-73
2022/11/25 00:53:12;;;;;;;3.40;3.20;;;5.30;99.90;;;;;;5011736;28;20201;-73
2022/11/25 00:58:21;;;;;;;2.95;2.85;;;5.30;99.90;;;;;;5009736;28;20228;-73
2022/11/25 01:00:48;;;;;;;2.95;2.75;;;5.20;99.90;;;;;;5014375;28;20219;-71
2022/11/25 01:03:15;;;;;;;3.38;3.17;;;5.20;99.90;;;;;;5029565;28;20207;-76
2022/11/25 01:05:42;;;;;;;3.42;3.13;;;5.20;99.90;;;;;;5027949;28;20238;-76
2022/11/25 01:08:09;;;;;;;3.30;3.10;;;5.10;99.90;;;;;;5034966;28;20251;-71
2022/11/25 01:10:36;;;;;;;3.30;3.10;;;5.10;99.90;;;;;;5028121;28;20203;-72
2022/11/25 01:13:05;;;;;;;3.00;2.80;;;5.10;99.90;;;;;;5010480;28;20207;-75
2022/11/25 01:15:32;;;;;;;3.20;3.00;;;5.10;99.90;;;;;;5007267;28;22411;-72
2022/11/25 01:17:59;;;;;;;3.30;3.10;;;5.20;99.90;;;;;;5010296;28;20207;-73
2022/11/25 01:20:26;;;;;;;3.05;2.85;;;5.20;99.90;;;;;;5010853;28;20201;-78
2022/11/25 01:22:53;;;;;;;3.20;3.00;;;5.30;99.90;;;;;;5028275;28;20228;-71
2022/11/25 01:25:20;;;;;;;2.63;2.53;;;5.30;99.90;;;;;;5029589;28;20227;-71
2022/11/25 01:27:47;;;;;;;2.95;2.83;;;5.30;99.90;;;;;;5028055;28;20303;-71
2022/11/25 01:30:16;;;;;;;2.92;2.83;;;5.30;99.90;;;;;;5029258;28;20205;-72
2022/11/25 01:32:43;;;;;;;3.15;2.95;;;5.40;99.90;;;;;;5031386;28;20230;-70
2022/11/25 01:35:11;;;;;;;3.00;2.80;;;5.40;99.90;;;;;;5029486;28;20220;-74
2022/11/25 01:37:38;;;;;;;3.22;3.03;;;5.30;99.90;;;;;;5036759;28;20277;-72
2022/11/25 01:40:06;;;;;;;2.50;2.40;;;5.40;99.90;;;;;;5028041;28;20211;-73
2022/11/25 01:42:33;;;;;;;2.65;2.55;;;5.40;99.90;;;;;;5027116;28;20643;-71
2022/11/25 01:45:37;;;;;;;2.72;2.63;;;5.40;99.90;;;;;;5031501;28;20191;-73
2022/11/25 01:48:12;;;;;;;2.70;2.60;;;5.40;99.90;;;;;;5030252;28;20215;-73
2022/11/25 01:50:41;;;;;;;3.00;2.80;;;5.40;99.90;;;;;;5027910;28;20199;-74
2022/11/25 01:53:11;;;;;;;2.67;2.50;;;5.40;99.90;;;;;;5030173;28;20200;-75
2022/11/25 01:55:42;;;;;;;3.00;2.80;;;5.40;99.90;;;;;;5030535;28;20258;-75
2022/11/25 01:58:12;;;;;;;2.47;2.38;;;5.40;99.90;;;;;;5031908;28;20207;-74
2022/11/25 02:00:49;;;;;;;3.10;2.90;;;5.40;99.90;;;;;;5028197;28;20286;-75
2022/11/25 02:03:19;;;;;;;3.03;2.83;;;5.30;99.90;;;;;;5006674;28;20230;-72
2022/11/25 02:05:54;;;;;;;2.58;2.47;;;5.30;99.90;;;;;;5009365;28;21866;-75
2022/11/25 02:08:24;;;;;;;3.83;2.50;;;5.30;99.90;;;;;;5010715;28;20249;-72
2022/11/25 02:10:53;;;;;;;2.70;2.50;;;5.30;99.90;;;;;;5009367;28;20223;-75
2022/11/25 02:13:22;;;;;;;2.58;2.38;;;5.30;99.90;;;;;;5007391;28;20281;-74
2022/11/25 02:15:51;;;;;;;2.63;2.53;;;5.30;99.90;;;;;;5009961;28;20330;-74
2022/11/25 02:18:18;;;;;;;2.60;2.50;;;5.30;99.90;;;;;;5008757;28;20241;-71
2022/11/25 02:20:46;;;;;;;2.50;2.40;;;5.30;99.90;;;;;;5012377;28;20206;-72
2022/11/25 02:23:24;;;;;;;3.03;2.83;;;5.30;99.90;;;;;;5006262;28;20588;-71
2022/11/25 02:25:53;;;;;;;3.17;2.40;;;5.30;99.90;;;;;;5011751;28;20239;-72
2022/11/25 02:28:23;;;;;;;2.95;2.75;;;5.30;99.90;;;;;;5027264;28;20207;-73
2022/11/25 02:30:50;;;;;;;2.60;2.50;;;5.40;99.90;;;;;;5022975;28;20614;-72
2022/11/25 02:33:18;;;;;;;2.85;2.75;;;5.40;99.90;;;;;;5024946;28;20203;-72
2022/11/25 02:35:48;;;;;;;2.80;2.60;;;5.40;99.90;;;;;;5029852;28;20652;-70
2022/11/25 02:38:18;;;;;;;2.33;2.22;;;5.30;99.90;;;;;;5006362;28;20655;-74
2022/11/25 02:40:49;;;;;;;2.97;2.80;;;5.30;99.90;;;;;;5002679;28;20192;-72
2022/11/25 02:43:18;;;;;;;2.60;2.50;;;5.30;99.90;;;;;;5009673;28;20659;-74
2022/11/25 02:45:56;;;;;;;2.90;2.70;;;5.30;99.90;;;;;;5007000;28;20220;-75
2022/11/25 02:48:23;;;;;;;2.30;2.20;;;5.30;99.90;;;;;;5005257;28;20287;-71
2022/11/25 02:50:51;;;;;;;2.67;2.58;;;5.30;99.90;;;;;;5012492;28;20624;-73
2022/11/25 02:53:18;;;;;;;2.60;2.50;;;5.20;99.90;;;;;;5028330;28;20199;-76
2022/11/25 02:55:45;;;;;;;2.60;2.50;;;5.20;99.90;;;;;;5025612;28;20231;-75
2022/11/25 02:58:13;;;;;;;3.17;2.60;;;5.20;99.90;;;;;;5010088;28;20605;-73
2022/11/25 03:00:43;;;;;;;2.70;2.60;;;5.20;99.90;;;;;;5008832;28;20204;-72
2022/11/25 03:03:10;;;;;;;3.13;2.92;;;5.20;99.90;;;;;;5010085;28;20201;-73
2022/11/25 03:05:37;;;;;;;2.70;2.60;;;5.20;99.90;;;;;;5008392;28;20212;-72
2022/11/25 03:08:05;;;;;;;2.63;2.42;;;5.20;99.90;;;;;;5008120;28;20208;-73
2022/11/25 03:10:32;;;;;;;2.72;2.60;;;5.20;99.90;;;;;;5008278;28;20205;-74
2022/11/25 03:12:59;;;;;;;2.95;2.80;;;5.20;99.90;;;;;;5009614;28;20204;-72
2022/11/25 03:15:26;;;;;;;3.17;2.97;;;5.20;99.90;;;;;;5009432;28;20721;-75
2022/11/25 03:17:55;;;;;;;2.80;2.70;;;5.10;99.90;;;;;;5004066;28;20224;-76
2022/11/25 03:20:22;;;;;;;2.63;2.47;;;5.10;99.90;;;;;;5009222;28;20254;-71
2022/11/25 03:22:49;;;;;;;2.75;2.65;;;5.10;99.90;;;;;;5005105;28;20271;-76
2022/11/25 03:25:17;;;;;;;2.95;2.85;;;5.10;99.90;;;;;;5008792;28;20200;-72
2022/11/25 03:27:45;;;;;;;2.90;2.80;;;5.10;99.90;;;;;;5002607;28;20291;-71
2022/11/25 03:30:15;;;;;;;3.03;2.63;;;5.10;99.90;;;;;;5009020;28;20196;-74
2022/11/25 03:32:43;;;;;;;3.00;2.80;;;5.10;99.90;;;;;;5009747;28;20663;-74
2022/11/25 03:35:12;;;;;;;2.75;2.63;;;5.10;99.90;;;;;;5008904;28;20219;-74
2022/11/25 03:37:39;;;;;;;2.63;2.45;;;5.10;99.90;;;;;;5006273;28;20227;-74
2022/11/25 03:40:09;;;;;;;2.88;2.67;;;5.10;99.90;;;;;;5007118;28;20200;-72
2022/11/25 03:42:36;;;;;;;2.50;2.40;;;5.10;99.90;;;;;;5004199;28;20228;-72
2022/11/25 03:45:04;;;;;;;2.75;2.65;;;5.10;99.90;;;;;;5007176;28;20652;-72
2022/11/25 03:47:31;;;;;;;2.75;2.65;;;5.10;99.90;;;;;;5024820;28;20219;-71
2022/11/25 03:49:59;;;;;;;2.55;2.45;;;5.00;99.90;;;;;;5025557;28;20208;-71
2022/11/25 03:52:27;;;;;;;2.90;2.80;;;5.00;99.90;;;;;;5023780;28;20697;-74
2022/11/25 03:54:54;;;;;;;2.70;2.50;;;5.00;99.90;;;;;;5023965;28;20223;-75
2022/11/25 03:57:21;;;;;;;2.80;2.60;;;5.00;99.90;;;;;;5023647;28;20219;-75
2022/11/25 03:59:49;;;;;;;2.55;2.35;;;5.00;99.90;;;;;;5026457;28;20200;-72
2022/11/25 04:02:16;;;;;;;3.10;2.80;;;5.00;99.90;;;;;;5026374;28;20223;-73
2022/11/25 04:04:43;;;;;;;2.50;2.40;;;5.00;99.90;;;;;;5021658;28;20207;-73
2022/11/25 04:07:10;;;;;;;2.63;2.53;;;5.00;99.90;;;;;;5024323;28;20706;-72
2022/11/25 04:09:38;;;;;;;2.60;2.40;;;4.90;99.90;;;;;;5025233;28;20206;-77
2022/11/25 04:14:50;;;;;;;2.60;2.50;;;4.90;99.90;;;;;;5023845;28;20222;-76
2022/11/25 04:17:17;;;;;;;2.85;2.65;;;4.90;99.90;;;;;;5025831;28;20234;-74
2022/11/25 04:19:44;;;;;;;2.70;2.60;;;4.90;99.90;;;;;;5027884;28;20196;-73
2022/11/25 04:22:11;;;;;;;2.97;2.78;;;5.00;99.90;;;;;;5022967;28;20215;-74
2022/11/25 04:24:40;;;;;;;2.97;2.78;;;5.00;99.90;;;;;;5027560;28;20199;-73
2022/11/25 04:27:07;;;;;;;3.00;2.90;;;5.00;99.90;;;;;;5033794;28;20227;-73
2022/11/25 04:29:34;;;;;;;2.83;2.65;;;5.00;99.90;;;;;;5035274;28;20199;-74
2022/11/25 04:32:01;;;;;;;3.20;3.00;;;5.00;99.90;;;;;;5022853;28;20242;-76
2022/11/25 04:34:28;;;;;;;3.22;3.03;;;5.00;99.90;;;;;;5025336;28;20223;-73
2022/11/25 04:36:55;;;;;;;3.13;2.92;;;4.90;99.90;;;;;;5026496;28;20839;-75
2022/11/25 04:39:22;;;;;;;3.30;3.10;;;4.90;99.90;;;;;;5027915;28;20603;-75
2022/11/25 04:42:30;;;;;;;2.92;2.83;;;4.90;99.90;;;;;;5024299;28;20220;-75
2022/11/25 04:44:38;;;;;;;2.60;2.50;;;4.90;99.90;;;;;;5026018;28;20195;-72
2022/11/25 04:47:05;;;;;;;2.83;2.72;;;4.80;99.90;;;;;;5027405;28;20219;-73
2022/11/25 04:49:32;;;;;;;2.63;2.53;;;4.80;99.90;;;;;;5031014;28;20202;-72
2022/11/25 04:52:00;;;;;;;3.03;2.83;;;4.80;99.90;;;;;;5025726;28;20370;-71
2022/11/25 04:54:27;;;;;;;2.80;2.70;;;4.80;99.90;;;;;;5026295;28;20203;-73
2022/11/25 04:56:55;;;;;;;2.60;2.50;;;4.80;99.90;;;;;;5028488;28;20250;-72
2022/11/25 04:59:40;;;;;;;2.45;2.35;;;4.80;99.90;;;;;;5029823;28;20207;-71
2022/11/25 05:02:12;;;;;;;2.72;2.63;;;4.80;99.90;;;;;;5027318;28;20226;-72
2022/11/25 05:04:39;;;;;;;2.55;2.45;;;4.80;99.90;;;;;;5026341;28;20196;-74
2022/11/25 05:07:06;;;;;;;2.88;2.67;;;4.80;99.90;;;;;;5029280;28;20223;-75
2022/11/25 05:09:33;;;;;;;3.35;3.15;;;4.80;99.90;;;;;;5028442;28;20188;-73
2022/11/25 05:12:01;;;;;;;3.90;3.60;;;4.80;99.90;;;;;;5028605;28;20215;-75
2022/11/25 05:14:28;;;;;;;4.05;3.75;;;4.80;99.90;;;;;;5029880;28;20282;-74
2022/11/25 05:16:55;;;;;;;3.30;3.10;;;4.80;99.90;;;;;;5029467;28;20748;-73
2022/11/25 05:19:23;;;;;;;4.10;3.80;;;4.80;99.90;;;;;;5030922;28;20207;-73
2022/11/25 05:21:50;;;;;;;4.20;3.90;;;4.80;99.90;;;;;;5026973;28;20223;-72
2022/11/25 05:24:17;;;;;;;4.05;3.75;;;4.70;99.90;;;;;;5027714;28;20577;-75
2022/11/25 05:26:44;;;;;;;4.30;4.00;;;4.70;99.90;;;;;;5030272;28;20216;-73
2022/11/25 05:29:13;;;;;;;4.50;4.20;;;4.70;99.90;;;;;;5028933;28;20674;-75
2022/11/25 05:31:40;;;;;;;4.20;3.90;;;4.60;99.90;;;;;;5025308;28;20877;-73
2022/11/25 05:34:07;;;;;;;3.75;3.47;;;4.60;99.90;;;;;;5028093;28;20203;-75
2022/11/25 05:36:34;;;;;;;3.60;3.33;;;4.70;99.90;;;;;;5026868;28;20228;-74
2022/11/25 05:39:01;;;;;;;3.80;3.50;;;4.70;99.90;;;;;;5028221;28;20200;-73
2022/11/25 05:41:28;;;;;;;3.80;3.50;;;4.70;99.90;;;;;;5028519;28;20216;-74
2022/11/25 05:43:55;;;;;;;3.38;3.17;;;4.70;99.90;;;;;;5027353;28;20206;-76
2022/11/25 05:46:24;;;;;;;3.40;3.10;;;4.70;99.90;;;;;;5025556;28;20223;-75
2022/11/25 05:48:54;;;;;;;3.20;3.00;;;4.70;99.90;;;;;;5028928;28;20200;-75
2022/11/25 05:51:21;;;;;;;3.50;3.30;;;4.70;99.90;;;;;;5024167;28;20223;-76
2022/11/25 05:53:48;;;;;;;3.03;2.83;;;4.70;99.90;;;;;;5023991;28;20235;-75
2022/11/25 05:56:15;;;;;;;3.40;3.20;;;4.70;99.90;;;;;;5021581;28;20780;-74
2022/11/25 05:58:42;;;;;;;3.20;3.00;;;4.70;99.90;;;;;;5027903;28;20693;-77
2022/11/25 06:01:11;;;;;;;3.22;2.67;;;4.70;99.90;;;;;;5026678;28;20227;-71
2022/11/25 06:03:40;;;;;;;2.92;2.65;;;4.70;99.90;;;;;;5029622;28;20200;-74
2022/11/25 06:06:09;;;;;;;3.10;3.00;;;4.70;99.90;;;;;;5027257;28;20232;-73
2022/11/25 06:08:37;;;;;;;3.28;3.10;;;4.70;99.90;;;;;;5028918;28;20267;-76
2022/11/25 06:11:06;;;;;;;3.30;3.00;;;4.70;99.90;;;;;;5029287;28;20224;-75
2022/11/25 06:13:33;;;;;;;2.78;2.67;;;4.70;99.90;;;;;;5030249;28;20198;-73
2022/11/25 06:16:07;;;;;;;2.72;2.63;;;4.70;99.90;;;;;;5022428;28;20763;-74
2022/11/25 06:18:35;;;;;;;3.17;2.97;;;4.60;99.90;;;;;;5027201;28;20203;-75
2022/11/25 06:21:04;;;;;;;2.63;2.53;;;4.60;99.90;;;;;;5025095;28;20223;-76
2022/11/25 06:23:32;;;;;;;3.42;3.13;;;4.60;99.90;;;;;;5032066;28;20199;-71
2022/11/25 06:26:04;;;;;;;2.80;2.70;;;4.60;99.90;;;;;;5023976;28;20219;-74
2022/11/25 06:28:31;;;;;;;3.03;2.92;;;4.60;99.90;;;;;;5028232;28;20414;-73
2022/11/25 06:31:03;;;;;;;3.00;2.90;;;4.60;99.90;;;;;;5026796;28;20223;-72
2022/11/25 06:33:30;;;;;;;3.42;3.22;;;4.70;99.90;;;;;;5023172;28;20701;-77
2022/11/25 06:35:57;;;;;;;3.20;3.00;;;4.60;99.90;;;;;;5022240;28;20318;-71
2022/11/25 06:38:26;;;;;;;4.30;4.00;;;4.60;99.90;;;;;;5025401;28;20199;-73
2022/11/25 06:40:53;;;;;;;3.92;3.63;;;4.60;99.90;;;;;;5024258;28;20280;-72
2022/11/25 06:43:20;;;;;;;4.85;4.35;;;4.50;99.90;;;;;;5025609;28;20207;-74
2022/11/25 06:45:47;;;;;;;4.85;4.45;;;4.50;99.90;;;;;;5021061;28;20721;-77
2022/11/25 06:48:14;;;;;;;5.15;4.70;;;4.50;99.90;;;;;;5026398;28;20207;-76
2022/11/25 06:50:41;;;;;;;4.93;4.53;;;4.50;99.90;;;;;;5020990;28;20265;-75
2022/11/25 06:53:08;;;;;;;4.07;3.80;;;4.50;99.90;;;;;;5028992;28;20200;-74
2022/11/25 06:55:37;;;;;;;4.47;4.18;;;4.50;99.90;;;;;;5023334;28;20230;-76
2022/11/25 06:58:04;;;;;;;3.45;3.25;;;4.50;99.90;;;;;;5026493;28;20360;-72
2022/11/25 07:00:31;;;;;;;3.80;3.60;;;4.50;99.90;;;;;;5025530;28;20646;-75
2022/11/25 07:02:58;;;;;;;3.80;3.50;;;4.50;99.90;;;;;;5022464;28;20650;-74
2022/11/25 07:05:25;;;;;;;3.58;3.30;;;4.50;99.90;;;;;;5025444;28;20234;-75
2022/11/25 07:07:52;;;;;;;3.40;3.20;;;4.50;99.90;;;;;;5025840;28;20231;-75
2022/11/25 07:10:19;;;;;;;3.63;3.42;;;4.60;99.90;;;;;;5026198;28;20257;-75
2022/11/25 07:12:48;;;;;;;4.40;4.10;;;4.60;99.90;;;;;;5023338;28;20265;-74
2022/11/25 07:15:15;;;;;;;5.40;4.95;;;4.70;99.90;;;;;;5020506;28;20231;-74
2022/11/25 07:17:42;;;;;;;6.43;4.97;;;4.80;99.90;;;;;;5022399;28;20227;-75
2022/11/25 07:20:10;;;;;;;5.65;5.10;;;4.90;99.90;;;;;;5030191;28;20208;-72
2022/11/25 07:22:37;;;;;;;5.22;4.70;;;4.90;99.90;;;;;;5026163;28;20637;-74
2022/11/25 07:25:04;;;;;;;5.35;4.85;;;4.90;99.90;;;;;;5021946;28;20856;-73
2022/11/25 07:27:32;;;;;;;4.60;4.20;;;4.90;99.90;;;;;;5022522;28;20227;-72
2022/11/25 07:30:01;;;;;;;4.00;3.70;;;4.90;99.90;;;;;;5016527;28;20202;-74
2022/11/25 07:32:28;;;;;;;4.15;3.85;;;5.00;99.90;;;;;;5018353;28;20289;-74
2022/11/25 07:34:55;;;;;;;3.85;3.55;;;5.00;99.90;;;;;;5016744;28;20204;-73
2022/11/25 07:37:22;;;;;;;3.50;3.30;;;5.00;99.90;;;;;;5020658;28;20227;-75
2022/11/25 07:39:49;;;;;;;3.60;3.30;;;5.10;99.90;;;;;;5018684;28;20207;-74
2022/11/25 07:42:16;;;;;;;3.22;2.92;;;5.10;99.90;;;;;;5020981;28;20221;-73
2022/11/25 07:44:43;;;;;;;3.38;3.17;;;5.10;99.90;;;;;;5015840;28;20195;-74
2022/11/25 07:47:12;;;;;;;3.55;3.35;;;5.10;99.90;;;;;;5017617;28;20294;-75
2022/11/25 07:49:39;;;;;;;3.75;3.55;;;5.10;99.90;;;;;;5020067;28;20203;-75
2022/11/25 07:52:06;;;;;;;3.60;3.38;;;5.10;99.90;;;;;;5018021;28;20215;-75
2022/11/25 07:54:33;;;;;;;5.80;4.82;;;5.10;99.90;;;;;;5021196;28;20306;-73
2022/11/25 07:57:00;;;;;;;4.82;4.43;;;5.10;99.90;;;;;;5021635;28;20239;-74
2022/11/25 07:59:27;;;;;;;3.97;3.65;;;5.00;99.90;;;;;;5022025;28;20204;-76
2022/11/25 08:01:56;;;;;;;4.03;3.53;;;5.50;99.90;;;;;;5023443;28;20234;-76
2022/11/25 08:04:24;;;;;;;4.05;3.58;;;6.30;99.90;;;;;;5014883;28;20214;-74
2022/11/25 08:06:52;;;;;;;3.40;3.20;;;7.40;99.90;;;;;;5018261;28;20227;-73
2022/11/25 08:09:22;;;;;;;3.80;3.60;;;8.40;99.90;;;;;;5020781;28;20199;-73
2022/11/25 08:11:50;;;;;;;3.90;3.60;;;9.30;99.90;;;;;;5017982;28;20235;-74
2022/11/25 08:14:18;;;;;;;3.80;3.50;;;10.00;99.90;;;;;;5019429;28;20202;-74
2022/11/25 08:16:46;;;;;;;4.00;3.60;;;10.40;99.90;;;;;;5018623;28;20227;-74
2022/11/25 08:19:15;;;;;;;3.90;3.38;;;10.90;99.90;;;;;;5019956;28;20201;-73
2022/11/25 08:21:46;;;;;;;3.95;3.55;;;11.30;99.90;;;;;;5020851;28;20219;-72
2022/11/25 08:24:16;;;;;;;3.65;3.35;;;12.00;99.90;;;;;;5018865;28;20200;-72
2022/11/25 08:26:44;;;;;;;3.60;3.30;;;12.50;99.90;;;;;;5007849;28;20238;-72
2022/11/25 08:29:14;;;;;;;3.25;2.88;;;12.90;99.90;;;;;;4999726;28;20208;-74
2022/11/25 08:31:41;;;;;;;3.30;3.00;;;13.20;99.90;;;;;;4996415;28;20231;-78
2022/11/25 08:34:10;;;;;;;3.63;3.30;;;13.50;99.90;;;;;;4998846;28;20291;-79
2022/11/25 08:36:38;;;;;;;3.88;2.80;;;13.30;99.90;;;;;;4996449;28;20247;-75
2022/11/25 08:39:07;;;;;;;3.05;2.85;;;13.00;99.90;;;;;;5000638;28;20288;-76
2022/11/25 08:41:36;;;;;;;2.90;2.70;;;13.10;99.90;;;;;;5006474;28;20227;-80
2022/11/25 08:44:07;;;;;;;2.90;2.53;;;13.20;99.90;;;;;;5022960;28;20207;-76
2022/11/25 08:46:38;;;;;;;3.00;2.80;;;13.30;99.90;;;;;;5017917;28;20231;-75
2022/11/25 08:49:07;;;;;;;3.10;2.90;;;13.50;99.90;;;;;;5014225;28;20567;-78
2022/11/25 08:51:36;;;;;;;3.15;2.92;;;13.70;99.90;;;;;;5020269;28;20893;-78
2022/11/25 08:54:06;;;;;;;3.10;2.90;;;14.00;99.90;;;;;;5017143;28;20204;-79
2022/11/25 08:56:34;;;;;;;3.30;2.78;;;14.10;99.90;;;;;;5021769;28;20223;-77
2022/11/25 08:59:01;;;;;;;3.33;3.03;;;14.20;99.90;;;;;;5017329;28;20204;-76
2022/11/25 09:01:28;;;;;;;3.13;2.33;;;14.50;99.90;;;;;;5022567;28;20220;-78
2022/11/25 09:03:57;;;;;;;2.72;2.53;;;15.20;99.90;;;;;;5021637;28;20725;-77
2022/11/25 09:06:25;;;;;;;3.05;2.75;;;16.10;99.90;;;;;;5027625;28;20223;-78
2022/11/25 09:08:55;;;;;;;3.47;3.10;;;17.40;99.90;;;;;;5021095;28;20666;-75
2022/11/25 09:11:24;;;;;;;3.88;3.58;;;18.80;99.90;;;;;;5019960;28;20609;-78
2022/11/25 09:13:51;;;;;;;3.75;3.13;;;20.20;98.80;;;;;;5030731;28;20188;-76
2022/11/25 09:16:19;;;;;;;3.05;2.60;;;21.10;93.90;;;;;;5028520;28;20984;-75
2022/11/25 09:18:47;;;;;;;3.17;2.88;;;22.20;90.40;;;;;;5017253;28;20188;-80
2022/11/25 09:21:17;;;;;;;4.07;2.90;;;23.00;84.80;;;;;;5016751;28;20224;-79
2022/11/25 09:23:44;;;;;;;4.40;3.03;;;23.30;79.40;;;;;;5025633;28;20566;-73
2022/11/25 09:26:21;;;;;;;2.88;2.67;;;23.30;75.50;;;;;;5022775;28;20221;-79
2022/11/25 09:28:50;;;;;;;3.40;3.10;;;23.40;75.00;;;;;;5019820;28;20543;-75
2022/11/25 09:31:17;;;;;;;3.88;3.47;;;23.40;74.00;;;;;;5018346;28;20224;-74
2022/11/25 09:33:44;;;;;;;3.63;3.33;;;23.00;73.70;;;;;;5015329;28;20682;-76
2022/11/25 09:36:12;;;;;;;4.40;3.47;;;22.40;75.40;;;;;;5025448;28;20227;-75
2022/11/25 09:38:39;;;;;;;4.40;3.42;;;21.50;77.10;;;;;;5025086;28;20200;-79
2022/11/25 09:41:15;;;;;;;3.70;3.22;;;20.10;81.10;;;;;;5020885;28;20235;-76
2022/11/25 09:47:09;;;;;;;4.10;3.50;;;17.60;90.50;;;;;;5021123;28;20712;-78
2022/11/25 09:49:59;;;;;;;3.42;3.13;;;16.80;92.30;;;;;;5021123;28;20195;-74
2022/11/25 09:52:36;;;;;;;3.38;3.08;;;16.30;93.00;;;;;;5024711;28;20231;-74
2022/11/25 09:55:09;;;;;;;4.68;3.30;;;15.80;94.60;;;;;;5020198;28;20199;-77
2022/11/25 09:57:50;;;;;;;3.63;3.10;;;15.30;96.10;;;;;;5022790;28;20215;-77
2022/11/25 10:00:20;;;;;;;3.40;3.10;;;15.20;96.60;;;;;;5020584;28;20192;-75
2022/11/25 10:02:59;;;;;;;3.55;3.25;;;15.20;97.40;;;;;;5018811;28;20286;-74
2022/11/25 10:05:28;;;;;;;3.30;3.00;;;15.30;97.50;;;;;;5019602;28;20749;-75
2022/11/25 10:08:00;;;;;;;3.50;2.80;;;15.40;96.80;;;;;;5020180;28;20274;-75
2022/11/25 10:10:29;;;;;;;3.40;3.10;;;15.40;97.80;;;;;;5026773;28;20192;-75
2022/11/25 10:12:58;;;;;;;3.00;2.80;;;15.40;97.80;;;;;;5027443;28;20206;-75
2022/11/25 10:15:30;;;;;;;5.22;2.97;;;15.30;98.10;;;;;;5020535;28;20227;-74
2022/11/25 10:18:03;;;;;;;3.45;3.15;;;15.20;97.20;;;;;;5019888;28;20243;-77
2022/11/25 10:20:33;;;;;;;3.55;3.05;;;15.10;98.50;;;;;;5019444;28;20219;-74
2022/11/25 10:23:03;;;;;;;3.10;2.80;;;15.20;98.30;;;;;;5023770;28;20575;-76
2022/11/25 10:25:34;;;;;;;3.08;2.80;;;15.20;98.30;;;;;;5022637;28;20582;-76
2022/11/25 10:28:04;;;;;;;4.43;2.97;;;15.00;98.40;;;;;;5020787;28;20199;-76
2022/11/25 10:30:41;;;;;;;5.63;3.38;;;14.50;98.40;;;;;;5018891;28;20195;-75
2022/11/25 10:33:19;;;;;;;3.50;3.20;;;14.60;99.40;;;;;;5021833;28;20200;-75
2022/11/25 10:35:51;;;;;;;3.00;2.70;;;14.90;98.90;;;;;;5017461;28;20322;-76
2022/11/25 10:38:24;;;;;;;3.30;3.00;;;14.90;99.10;;;;;;5022443;28;20200;-77
2022/11/25 10:40:52;;;;;;;3.20;2.90;;;15.00;99.20;;;;;;5020318;28;20227;-76
2022/11/25 10:43:19;;;;;;;3.90;3.00;;;15.10;99.00;;;;;;5021627;28;20212;-73
2022/11/25 10:45:57;;;;;;;5.78;3.08;;;15.10;99.30;;;;;;5017700;28;20226;-76
2022/11/25 10:48:40;;;;;;;3.33;3.03;;;15.50;99.20;;;;;;5022470;28;20647;-74
2022/11/25 10:51:20;;;;;;;4.03;3.20;;;15.50;98.40;;;;;;5015258;28;20234;-73
2022/11/25 10:54:09;;;;;;;4.28;3.10;;;15.30;98.10;;;;;;5019320;28;20219;-74
2022/11/25 10:56:44;;;;;;;5.13;2.95;;;15.20;98.60;;;;;;5022375;28;20231;-76
2022/11/25 10:59:21;;;;;;;3.83;2.78;;;14.90;98.60;;;;;;5020281;28;20203;-77
2022/11/25 11:01:51;;;;;;;4.38;3.35;;;14.90;99.10;;;;;;5016913;28;20274;-76
2022/11/25 11:04:19;;;;;;;3.63;3.20;;;14.90;99.00;;;;;;5020227;28;20196;-75
2022/11/25 11:06:48;;;;;;;3.05;2.75;;;14.70;98.90;;;;;;5018706;28;20534;-76
2022/11/25 11:09:31;;;;;;;2.80;2.60;;;14.70;98.80;;;;;;5029190;28;20215;-74
2022/11/25 11:12:07;;;;;;;3.17;2.88;;;14.70;98.80;;;;;;5016305;28;20216;-77
2022/11/25 11:14:34;;;;;;;4.82;2.60;;;14.70;99.00;;;;;;5021780;28;20199;-73
2022/11/25 11:17:02;;;;;;;2.92;2.60;;;14.80;99.10;;;;;;5020477;28;20706;-78
2022/11/25 11:19:31;;;;;;;3.33;2.78;;;14.70;99.10;;;;;;5023392;28;20211;-77
2022/11/25 11:22:16;;;;;;;3.05;2.65;;;14.60;98.50;;;;;;5021568;28;20720;-76
2022/11/25 11:24:43;;;;;;;2.95;2.47;;;14.60;97.50;;;;;;5020320;28;20449;-72
2022/11/25 11:27:19;;;;;;;2.45;2.13;;;14.50;98.00;;;;;;5020595;28;20231;-73
2022/11/25 11:29:46;;;;;;;3.20;2.33;;;14.60;97.10;;;;;;5020531;28;20395;-73
2022/11/25 11:32:23;;;;;;;4.63;2.33;;;14.50;97.90;;;;;;5019967;28;20222;-78
2022/11/25 11:35:01;;;;;;;2.30;2.10;;;14.70;97.50;;;;;;5020566;28;20206;-78
2022/11/25 11:37:41;;;;;;;3.90;2.40;;;14.70;97.60;;;;;;5021946;28;20214;-77
2022/11/25 11:40:35;;;;;;;2.70;2.20;;;14.90;97.50;;;;;;5020917;28;20195;-78
2022/11/25 11:43:20;;;;;;;2.65;2.45;;;14.90;97.20;;;;;;5019953;28;20684;-77
2022/11/25 11:46:03;;;;;;;3.15;2.55;;;15.00;97.40;;;;;;5019778;28;20512;-76
2022/11/25 11:48:39;;;;;;;2.63;2.40;;;15.20;97.90;;;;;;5021673;28;20211;-77
2022/11/25 11:51:17;;;;;;;2.75;2.55;;;15.10;97.40;;;;;;5020121;28;20222;-76
2022/11/25 11:53:52;;;;;;;2.60;2.30;;;15.10;97.10;;;;;;5020982;28;20297;-76
2022/11/25 11:56:29;;;;;;;3.63;2.63;;;15.20;97.20;;;;;;5017744;28;20222;-75
2022/11/25 11:59:25;;;;;;;3.47;2.88;;;15.10;97.60;;;;;;5021844;28;20196;-78
2022/11/25 12:02:05;;;;;;;3.58;2.90;;;14.90;97.50;;;;;;5020115;28;20215;-79
2022/11/25 12:04:39;;;;;;;3.78;2.80;;;14.70;97.60;;;;;;5025752;28;20230;-77
2022/11/25 12:07:13;;;;;;;3.55;2.58;;;14.60;98.20;;;;;;5026765;28;20228;-76
2022/11/25 12:09:46;;;;;;;2.90;2.63;;;14.60;99.10;;;;;;5021839;28;20194;-76
2022/11/25 12:12:19;;;;;;;3.13;2.75;;;14.50;98.70;;;;;;5020307;28;20212;-74
2022/11/25 12:14:50;;;;;;;3.58;2.60;;;14.40;99.20;;;;;;5021139;28;20192;-76
2022/11/25 12:17:20;;;;;;;3.28;2.70;;;14.30;98.50;;;;;;5016670;28;20224;-82
2022/11/25 12:19:58;;;;;;;2.78;2.58;;;14.20;99.00;;;;;;5020094;28;20199;-79
2022/11/25 12:22:29;;;;;;;3.08;2.50;;;14.10;98.80;;;;;;5021398;28;20328;-76
2022/11/25 12:25:06;;;;;;;3.92;2.63;;;14.10;99.30;;;;;;5020325;28;20450;-76
2022/11/25 12:27:37;;;;;;;3.67;2.50;;;14.10;99.70;;;;;;5022720;28;20211;-78
2022/11/25 12:30:06;;;;;;;4.13;3.17;;;14.10;99.90;;;;;;5020875;28;20199;-76
2022/11/25 12:32:51;;;;;;;3.22;2.97;;;14.10;99.90;;;;;;5017877;28;20306;-80
2022/11/25 12:35:30;;;;;;;5.10;2.72;;;14.10;99.90;;;;;;5021190;28;20196;-78
2022/11/25 12:38:05;;;;;;;2.85;2.50;;;14.20;99.20;;;;;;5019666;28;20219;-77
2022/11/25 12:40:36;;;;;;;3.13;2.58;;;14.10;98.90;;;;;;5023127;28;20195;-80
2022/11/25 12:43:16;;;;;;;2.78;2.50;;;14.00;98.70;;;;;;5022491;28;20207;-81
2022/11/25 12:45:47;;;;;;;4.35;2.70;;;14.00;99.70;;;;;;5022614;28;20226;-77
2022/11/25 12:48:14;;;;;;;2.92;2.72;;;14.00;99.90;;;;;;5025249;28;20204;-79
2022/11/25 12:50:56;;;;;;;2.30;2.10;;;14.00;99.70;;;;;;5029905;28;20638;-74
2022/11/25 12:53:33;;;;;;;2.85;2.45;;;14.00;99.50;;;;;;5022954;28;20254;-77
2022/11/25 12:56:03;;;;;;;2.63;2.20;;;14.00;99.60;;;;;;5023518;28;20235;-79
2022/11/25 12:58:53;;;;;;;2.55;2.22;;;13.90;99.90;;;;;;5024927;28;20220;-79
2022/11/25 13:01:54;;;;;;;2.80;2.55;;;13.80;99.70;;;;;;5030183;28;20223;-78
2022/11/25 13:04:52;;;;;;;2.53;2.33;;;13.70;99.80;;;;;;5023999;28;20283;-76
2022/11/25 13:07:29;;;;;;;2.67;2.42;;;13.50;99.40;;;;;;5024605;28;20651;-76
2022/11/25 13:10:32;;;;;;;2.70;2.47;;;13.60;99.90;;;;;;5027636;28;20197;-78
2022/11/25 13:13:23;;;;;;;3.22;2.83;;;13.70;99.30;;;;;;5020511;28;20714;-81
2022/11/25 13:15:54;;;;;;;2.38;2.17;;;13.70;99.50;;;;;;5025251;28;20227;-81
2022/11/25 13:18:24;;;;;;;2.80;2.53;;;13.70;99.70;;;;;;5021425;28;20215;-81
2022/11/25 13:20:52;;;;;;;6.07;3.50;;;13.60;99.90;;;;;;5020870;28;20307;-79